Date,TemperatureHighF,TemperatureAvgF,TemperatureLowF,DewpointHighF,DewpointAvgF,DewpointLowF,HumidityHigh,HumidityAvg,HumidityLow,PressureMaxIn,PressureMinIn,WindSpeedMaxMPH,WindSpeedAvgMPH,GustSpeedMaxMPH,PrecipitationSumIn
2013-1-1,33.0,23.1,10.9,29.0,18.5,6.5,88,82,76,30.00,29.82,10,4,11,0.00
2013-1-2,24.5,20.2,14.6,19.0,15.8,9.3,92,83,73,30.17,29.97,12,6,15,0.00
2013-1-3,27.2,22.5,15.3,25.8,19.8,13.4,95,89,80,30.16,29.97,16,8,17,0.00
2013-1-4,31.7,29.2,27.4,26.5,23.8,20.4,91,81,65,30.01,29.86,25,19,32,0.00
2013-1-5,32.1,29.8,27.8,27.3,25.1,22.8,88,83,76,30.27,30.01,25,8,25,0.00
2013-1-6,35.7,32.4,27.9,32.3,29.6,24.8,95,89,83,30.03,29.87,12,8,13,0.00
2013-1-7,33.8,28.3,24.6,32.3,24.9,22.1,95,87,78,30.35,30.05,16,8,21,0.00
2013-1-8,39.4,31.4,23.3,25.3,22.3,19.2,86,70,51,30.30,30.16,14,9,16,0.00
2013-1-9,44.9,37.3,30.5,37.8,29.9,24.0,83,75,66,30.27,29.96,23,15,28,0.00
2013-1-10,39.5,35.7,32.8,30.2,28.4,27.2,83,75,67,30.55,30.33,9,2,9,0.00
2013-1-11,42.4,39.5,32.8,38.9,33.4,25.3,95,79,53,30.35,29.88,18,11,18,0.11
2013-1-12,54.4,44.0,40.5,49.7,39.4,-99.9,98,92,84,29.99,29.93,13,-26,15,0.00
2013-1-13,65.1,55.6,49.1,57.0,52.0,48.0,97,88,75,29.93,29.70,16,8,21,0.00
2013-1-14,55.4,34.3,27.3,52.8,29.6,22.1,93,83,73,30.32,29.68,25,9,25,0.01
2013-1-15,31.6,28.1,25.9,23.2,21.4,19.8,84,76,64,30.37,30.16,7,2,9,0.00
2013-1-16,35.6,29.9,27.3,30.9,26.1,22.1,92,86,80,30.14,29.76,8,3,9,0.00
2013-1-18,23.4,22.9,22.0,14.1,13.3,12.4,68,66,65,30.34,30.26,9,8,11,0.00
2013-1-20,24.5,20.5,17.8,21.3,15.4,10.2,90,81,70,30.02,29.77,22,11,29,0.04
2013-1-21,19.9,16.4,10.9,16.4,11.3,4.8,89,80,66,30.02,29.84,8,2,10,0.00
2013-1-22,10.2,7.5,6.5,6.6,4.1,2.7,88,86,81,30.07,29.88,14,5,14,0.00
2013-1-24,8.0,4.5,0.3,1.7,-0.4,-3.4,84,80,75,30.52,30.50,3,2,9,0.00
2013-1-25,13.6,8.7,1.0,10.2,5.0,-3.2,91,84,74,30.50,30.07,4,1,9,0.00
2013-1-26,22.3,15.0,8.4,13.8,10.2,6.1,90,81,66,30.39,30.08,8,1,9,0.00
2013-1-27,27.6,22.1,16.4,19.0,16.7,13.2,91,80,63,30.54,30.34,8,1,9,0.01
2013-1-28,43.9,34.4,26.5,43.1,31.7,17.9,97,90,68,30.31,29.84,17,9,18,0.06
2013-1-29,52.6,44.5,36.2,51.5,43.7,35.2,98,97,96,30.00,29.74,9,4,14,0.24
2013-1-30,59.2,56.1,51.9,55.4,52.0,50.2,96,86,79,29.69,28.99,20,14,30,0.11
2013-1-31,54.0,27.4,19.2,51.4,24.1,17.5,93,88,75,29.66,28.97,29,19,41,0.11
2013-2-1,19.4,17.6,15.0,17.4,13.5,8.8,93,84,64,30.17,29.67,11,6,13,0.00
2013-2-2,18.2,14.8,11.3,15.4,10.7,6.1,90,84,77,30.18,29.95,19,9,19,0.00
2013-2-3,22.7,17.6,12.0,17.3,13.7,9.9,92,85,65,29.95,29.76,10,3,10,0.00
2013-2-4,18.5,16.9,14.8,14.6,13.3,11.5,91,86,80,29.95,29.85,9,4,12,0.00
2013-2-5,25.9,20.2,15.6,19.2,16.5,13.4,93,86,74,29.93,29.82,6,1,9,0.03
2013-2-6,25.6,23.1,16.1,23.8,17.3,11.3,93,79,62,30.34,29.86,10,5,13,0.00
2013-2-7,32.3,24.0,14.2,23.1,17.5,11.0,89,77,62,30.37,30.04,11,3,12,0.01
2013-2-8,36.6,30.8,18.0,33.9,27.3,16.1,96,87,72,30.03,29.69,15,7,16,0.08
2013-2-9,21.3,17.0,12.8,16.9,14.2,9.9,92,89,82,30.40,30.04,9,4,10,0.00
2013-2-10,38.3,25.5,11.7,25.1,16.7,8.4,88,71,51,30.39,29.98,16,6,19,0.05
2013-2-11,45.0,37.0,33.2,40.6,30.9,23.8,94,79,58,29.98,29.54,27,17,34,0.06
2013-2-12,32.8,30.6,28.9,28.2,25.8,23.3,87,82,76,29.94,29.70,26,16,30,0.00
2013-2-13,38.6,31.0,26.1,27.2,24.6,23.3,89,78,58,29.88,29.67,8,3,9,0.00
2013-2-14,39.5,31.8,24.4,34.0,28.3,21.9,96,87,68,29.89,29.76,11,7,15,0.05
2013-2-15,36.4,31.5,23.4,34.4,25.5,16.6,95,78,70,30.01,29.75,19,12,25,0.03
2013-2-16,27.0,22.5,18.6,19.4,15.1,11.0,91,74,52,30.02,29.90,9,3,9,0.00
2013-2-17,18.3,14.0,10.3,15.9,9.7,4.5,90,83,71,30.17,29.85,14,7,15,0.00
2013-2-18,33.7,21.1,7.2,21.3,12.1,3.4,87,70,46,30.28,29.93,9,4,11,0.00
2013-2-19,39.8,32.8,22.6,36.8,26.7,17.7,94,79,57,29.92,29.52,22,14,25,0.06
2013-2-20,21.8,18.6,16.4,18.4,15.7,11.8,92,88,79,30.06,29.71,19,13,24,0.00
2013-2-21,19.8,17.7,15.0,16.8,13.2,10.5,90,82,76,30.41,30.04,15,7,16,0.00
2013-2-22,33.2,26.2,18.8,28.0,22.4,16.2,92,86,71,30.37,30.01,13,7,13,0.00
2013-2-23,35.5,31.6,28.8,32.7,28.7,23.6,93,89,80,30.01,29.83,13,7,18,0.01
2013-2-24,28.9,28.2,27.4,25.1,24.1,23.3,88,84,80,30.04,29.81,14,8,17,0.00
2013-2-25,33.5,30.4,27.9,27.2,25.5,23.9,89,82,71,30.19,30.04,9,4,11,0.00
2013-2-26,39.3,32.7,25.9,32.5,27.0,22.1,96,80,63,30.19,29.77,11,5,14,0.13
2013-2-27,36.2,34.1,32.6,35.4,33.2,31.6,97,96,94,29.74,29.52,10,4,16,0.10
2013-2-28,34.5,33.1,31.7,32.5,31.1,30.4,95,92,86,29.54,29.50,11,6,14,0.03
2013-3-3,23.1,21.3,20.1,18.6,18.0,17.1,91,87,81,29.88,29.82,10,6,13,0.00
2013-3-4,26.5,22.7,18.3,23.0,18.9,15.3,89,85,79,30.03,29.89,14,8,22,0.00
2013-3-5,32.1,25.7,21.6,25.4,21.7,18.3,92,85,74,30.08,29.93,7,3,10,0.01
2013-3-6,37.1,30.4,22.3,32.3,27.6,20.6,94,89,77,30.10,29.90,8,5,11,0.01
2013-3-7,37.3,33.4,29.2,32.1,30.3,27.2,95,88,75,30.23,30.09,9,4,10,0.00
2013-3-8,38.6,33.9,28.7,27.6,26.1,23.8,94,74,60,30.37,30.21,12,7,15,0.00
2013-3-9,47.0,37.0,27.3,32.7,29.1,24.1,92,74,53,30.38,30.19,7,2,9,0.00
2013-3-10,46.0,41.8,38.0,29.1,28.0,26.6,69,58,49,30.19,30.09,12,8,14,0.00
2013-3-11,56.4,51.6,47.5,46.3,34.9,29.8,80,53,44,29.90,29.62,19,12,20,0.00
2013-3-12,51.2,37.2,33.3,47.4,32.0,-99.9,93,87,84,29.86,29.62,16,-11,18,0.31
2013-3-13,31.9,26.8,22.9,24.9,21.0,18.8,90,79,67,29.92,29.82,25,16,33,0.00
2013-3-14,29.2,23.1,18.6,19.5,14.7,11.0,88,71,49,30.05,29.92,16,10,21,0.00
2013-3-15,32.4,27.0,24.2,29.8,22.7,15.5,91,84,67,30.03,29.74,20,11,30,0.00
2013-3-16,27.0,24.7,21.8,22.8,21.2,18.0,89,86,79,29.95,29.79,6,4,9,0.00
2013-3-17,29.8,24.2,18.0,22.2,18.6,14.2,91,79,65,30.30,29.94,9,4,10,0.00
2013-3-18,33.7,25.5,19.2,31.1,19.8,12.3,94,80,51,30.30,29.71,15,7,20,0.00
2013-3-19,34.4,30.0,23.6,32.5,27.1,20.5,95,89,80,29.80,29.65,20,6,20,0.16
2013-3-20,27.7,24.8,22.1,23.8,20.2,15.7,92,83,68,29.81,29.78,20,12,24,0.00
2013-3-21,26.1,21.9,14.6,23.5,17.8,11.9,91,84,71,29.76,29.71,18,10,19,0.00
2013-3-23,30.8,30.8,30.7,26.2,26.1,25.9,83,83,82,29.95,29.95,8,7,0,0.00
2013-4-7,67.8,55.5,42.7,47.2,39.1,27.2,82,56,38,29.95,29.68,25,14,0,0.00
2013-4-8,64.2,49.2,38.0,51.0,39.9,33.9,86,72,47,30.05,29.73,12,3,0,0.00
2013-4-9,65.2,53.0,43.5,52.4,45.1,41.3,96,76,45,30.04,29.72,24,8,0,0.29
2013-4-10,50.4,43.5,38.5,49.3,42.9,38.0,98,97,95,29.97,29.79,10,4,0,0.95
2013-4-11,38.4,35.2,31.0,37.9,34.3,29.5,98,96,91,30.10,29.91,8,3,0,0.33
2013-4-15,70.2,62.8,56.6,50.0,48.3,47.3,74,60,45,30.02,29.95,18,10,0,0.01
2013-4-16,66.1,56.3,46.6,59.4,51.1,39.4,93,83,74,30.14,29.89,19,11,0,0.17
2013-4-17,54.4,47.0,38.5,39.9,36.2,32.2,80,66,53,30.27,30.13,7,3,0,0.00
2013-4-18,71.5,60.5,44.6,59.4,51.2,34.8,83,72,61,30.17,29.67,22,13,0,0.00
2013-4-19,69.6,55.8,39.2,61.0,49.5,32.0,91,80,67,29.67,29.27,24,15,0,0.15
2013-4-20,39.2,35.2,30.2,32.8,28.2,24.0,90,75,63,30.37,29.66,29,16,0,0.00
2013-4-21,42.9,34.1,26.2,28.7,24.8,21.5,87,70,53,30.64,30.37,8,4,0,0.01
2013-4-22,56.9,45.0,32.1,31.5,26.5,23.6,74,51,31,30.56,30.29,12,5,0,0.00
2013-4-23,63.6,46.7,36.4,36.3,31.8,28.7,78,58,30,30.30,29.99,11,6,0,0.00
2013-5-2,75.0,69.3,62.1,39.9,36.8,32.7,44,31,23,30.25,30.17,11,6,0,0.00
2013-5-3,73.4,62.2,55.6,44.7,40.8,39.0,56,46,34,30.20,30.12,8,4,0,0.00
2013-5-6,75.4,60.8,49.0,47.6,37.4,29.4,65,44,25,30.06,29.91,9,4,0,0.00
2013-5-7,70.1,60.6,55.2,53.5,50.7,47.8,82,70,50,30.03,29.99,7,5,0,0.00
2013-5-12,44.9,40.7,37.1,37.1,33.5,31.7,83,76,61,29.74,29.71,23,15,0,0.01
2013-5-15,78.2,77.6,76.8,60.4,59.2,57.3,57,53,50,29.52,29.50,22,19,0,0.00
2013-5-17,62.9,55.5,45.0,42.3,40.6,39.1,82,59,43,30.16,29.93,5,2,0,0.00
2013-5-18,70.6,60.3,51.3,54.0,45.3,37.5,76,58,45,30.18,30.05,7,3,0,0.00
2013-5-19,76.6,65.3,57.1,62.5,57.9,53.3,89,78,58,30.07,29.91,13,8,0,0.00
2013-5-20,84.3,72.9,62.0,65.8,62.2,58.3,90,71,48,29.96,29.75,13,6,0,0.00
2013-5-21,87.0,74.8,64.4,70.6,65.0,60.1,88,73,46,29.82,29.63,12,6,0,0.04
2013-5-22,85.4,70.9,65.3,68.2,63.9,60.7,91,79,44,29.71,29.59,13,8,0,0.00
2013-5-24,43.6,39.6,38.0,42.0,37.8,36.4,95,93,91,30.07,29.80,13,9,0,0.14
2013-5-25,41.4,40.9,40.4,36.6,36.4,36.1,85,84,83,30.16,30.15,6,5,0,0.00
2013-5-27,69.5,56.5,44.2,43.1,35.7,32.6,73,48,28,30.21,30.10,9,4,0,0.00
2013-5-28,61.4,60.5,59.5,60.2,59.1,57.5,96,95,93,29.95,29.89,6,3,0,0.34
2013-5-29,75.7,74.9,73.7,66.3,65.8,65.0,76,73,70,29.88,29.86,19,15,0,0.02
2013-6-1,83.8,72.1,65.6,68.1,65.2,62.5,92,80,55,29.82,29.67,17,10,0,0.02
2013-6-3,60.2,53.7,47.8,48.9,45.0,41.0,93,74,50,29.95,29.80,10,6,0,0.01
2013-6-4,66.1,56.7,47.7,45.6,41.0,31.9,85,59,30,30.10,29.95,10,4,0,0.00
2013-6-5,67.2,58.7,50.3,49.9,45.0,40.9,84,61,47,30.13,29.99,8,4,0,0.00
2013-6-6,57.3,55.1,53.0,56.7,51.5,42.2,98,88,61,29.99,29.76,7,2,0,0.00
2013-6-7,60.0,58.4,56.7,59.4,57.6,56.0,98,97,96,29.76,29.71,6,3,0,0.00
2013-6-8,56.7,56.2,55.8,56.1,55.5,55.0,98,98,97,29.81,29.72,6,3,0,0.00
2013-6-9,72.4,69.3,64.3,58.4,57.0,55.1,79,65,57,30.09,30.02,5,2,0,0.00
2013-6-10,66.5,64.3,62.4,64.6,60.3,56.5,97,87,78,30.02,29.72,10,4,0,0.00
2013-6-11,66.7,64.8,62.2,61.7,60.8,58.9,91,87,83,29.74,29.63,9,6,0,0.01
2013-6-12,73.3,65.3,56.7,60.8,56.2,53.5,91,74,55,29.83,29.67,7,2,0,0.00
2013-6-13,66.5,60.6,55.9,61.9,58.5,54.5,98,93,77,29.68,29.36,14,6,0,0.00
2013-6-14,70.8,61.5,54.9,60.2,56.8,53.5,97,85,63,29.89,29.68,11,6,0,0.00
2013-6-15,70.0,63.2,55.1,57.1,52.4,44.7,90,70,44,29.97,29.87,11,6,0,0.00
2013-6-16,71.6,64.7,59.8,65.2,59.4,53.4,94,83,71,29.87,29.63,16,10,0,0.00
2013-6-17,76.7,69.5,61.1,62.5,58.5,52.7,94,70,44,29.82,29.73,17,8,0,0.00
2013-6-18,65.3,60.5,53.8,58.2,53.9,46.6,96,80,52,29.92,29.76,8,3,0,0.00
2013-6-19,67.4,59.2,52.1,49.2,46.5,42.5,86,64,45,30.11,29.92,6,3,0,0.00
2013-6-20,77.3,64.4,53.0,54.8,48.1,41.6,78,57,29,30.16,30.10,9,4,0,0.00
2013-6-21,80.5,69.1,58.7,60.2,54.6,44.7,74,61,42,30.17,30.06,8,3,0,0.00
2013-6-22,82.6,70.1,64.3,66.6,61.6,57.7,86,75,56,30.08,29.99,14,9,0,0.00
2013-7-10,83.0,74.8,69.3,74.8,67.8,61.6,87,79,71,29.68,29.57,20,8,0,0.00
2013-7-11,75.3,67.6,59.3,64.5,59.2,55.1,92,76,53,29.88,29.67,13,4,0,0.00
2013-7-12,72.3,66.3,62.3,63.8,60.8,58.7,93,83,68,30.03,29.87,6,2,0,0.00
2013-7-13,75.3,69.8,61.7,70.2,65.3,58.8,95,86,75,30.10,30.01,5,1,0,0.00
2013-7-14,87.1,76.8,67.7,74.6,70.4,65.9,95,82,60,30.16,30.06,8,4,0,0.00
2013-7-15,87.2,79.1,72.7,75.1,71.4,64.1,94,78,61,30.13,30.04,7,3,0,0.00
2013-7-16,88.0,80.1,73.0,74.4,68.9,62.1,86,69,52,30.10,30.01,8,4,0,0.00
2013-7-17,88.3,79.3,72.7,77.2,72.2,67.8,91,80,66,30.04,29.92,9,5,0,0.00
2013-7-29,68.0,63.5,57.9,58.2,56.3,54.0,91,78,65,29.98,29.89,10,6,0,0.00
2013-7-30,71.9,63.9,54.9,59.8,57.3,53.5,96,80,59,30.04,29.95,8,4,0,0.00
2013-7-31,77.4,67.5,57.0,63.1,58.7,54.0,92,75,54,29.97,29.73,7,3,0,0.00
2013-8-1,74.1,67.6,64.0,66.1,62.8,59.7,95,85,70,29.73,29.56,15,6,0,0.00
2013-8-2,73.3,67.4,58.6,63.5,59.6,55.3,97,77,54,29.69,29.61,13,6,0,0.00
2013-8-3,72.7,66.5,61.2,61.0,57.3,51.7,92,73,50,29.72,29.61,11,5,0,0.00
2013-8-4,69.8,62.2,56.2,58.4,54.5,49.9,92,77,58,29.85,29.71,11,5,0,0.00
2013-8-5,71.5,62.3,52.9,56.3,51.2,48.2,93,69,46,29.91,29.80,7,3,0,0.00
2013-8-6,75.7,66.3,55.5,60.9,55.9,51.6,90,70,50,29.84,29.75,8,4,0,0.00
2013-8-7,77.4,69.8,62.6,68.1,63.8,59.1,90,81,70,29.77,29.63,12,8,0,0.00
2013-8-8,80.8,71.7,65.7,73.1,67.8,63.0,96,88,68,29.69,29.63,11,4,0,0.30
2013-8-9,74.0,68.8,62.8,69.0,65.5,58.2,97,90,67,29.68,29.57,7,3,0,0.66
2013-8-10,71.4,65.3,59.9,59.7,56.2,49.8,94,74,51,29.83,29.68,10,5,0,0.01
2013-8-11,73.4,64.2,54.8,58.6,54.9,52.5,93,73,51,29.87,29.77,6,3,0,0.00
2013-8-12,74.0,66.7,60.3,63.9,59.1,53.8,90,77,60,29.80,29.59,9,4,0,0.00
2013-8-13,71.0,64.2,55.7,64.8,58.6,47.8,97,83,64,29.74,29.47,15,6,0,0.96
2013-8-14,65.9,57.9,51.9,53.5,49.9,47.0,93,76,53,29.98,29.73,12,7,0,0.00
2013-8-15,69.3,60.0,50.9,56.3,52.0,47.5,90,76,57,30.04,29.97,11,5,0,0.00
2013-8-16,73.1,63.9,52.7,59.2,55.3,50.4,93,75,53,30.09,30.01,7,2,0,0.00
2013-8-17,75.5,67.1,57.6,59.6,55.0,50.3,86,66,44,30.17,30.08,8,3,0,0.00
2013-8-18,76.2,68.0,59.4,63.1,57.7,52.5,86,70,54,30.10,29.96,8,4,0,0.00
2013-8-19,77.9,68.6,60.1,64.0,60.0,57.8,93,76,55,29.98,29.87,6,4,0,0.00
2013-8-20,79.6,69.9,60.9,63.2,60.0,56.0,88,72,52,29.98,29.90,8,5,0,0.00
2013-8-21,82.5,71.8,61.4,67.8,62.2,58.1,90,73,50,30.01,29.85,7,4,0,0.00
2013-8-22,80.0,72.1,64.7,70.0,65.7,60.3,89,80,68,29.86,29.71,13,6,0,0.02
2013-8-23,74.0,66.6,59.9,61.2,56.7,53.2,89,71,54,30.00,29.79,8,4,0,0.00
2013-8-24,73.3,64.1,55.8,56.5,54.1,51.3,91,71,51,30.16,30.00,5,2,0,0.00
2013-8-25,78.5,68.5,56.8,62.0,56.7,52.2,87,68,44,30.14,29.92,11,6,0,0.00
2013-8-26,78.2,70.3,65.8,69.7,64.0,59.1,92,81,67,29.98,29.69,14,8,0,0.25
2013-8-27,81.7,73.0,66.3,72.8,69.1,65.1,97,88,71,29.71,29.61,7,3,0,0.06
2013-8-28,77.6,70.8,68.3,70.7,68.6,66.7,97,93,77,29.64,29.58,6,2,0,1.04
2013-8-29,82.0,74.7,66.5,70.9,67.9,64.9,96,80,62,29.77,29.70,6,2,0,0.00
2013-8-30,81.8,73.1,63.9,71.4,67.5,61.8,96,83,62,29.73,29.45,8,4,0,0.00
2013-8-31,79.7,74.6,68.7,71.0,69.1,66.9,95,84,70,29.52,29.42,9,5,0,0.00
2013-9-1,80.7,71.5,66.2,71.4,67.9,64.4,98,89,65,29.50,29.37,6,2,0,0.15
2013-9-2,78.4,70.3,62.1,71.8,66.5,56.9,97,88,75,29.41,29.31,10,4,0,0.04
2013-9-3,63.8,60.7,58.4,59.2,57.0,55.2,93,88,78,29.68,29.29,12,5,0,0.01
2013-9-4,73.4,64.5,55.0,60.9,56.7,51.9,95,78,48,29.73,29.68,14,8,0,0.00
2013-9-5,62.3,57.5,53.4,60.8,55.4,50.2,95,93,89,29.79,29.69,7,3,0,0.01
2013-9-6,48.2,47.6,46.9,43.1,42.7,42.3,85,83,81,30.00,29.97,8,5,0,0.00
2013-9-8,65.3,60.4,53.0,64.1,52.9,45.6,96,77,56,29.82,29.56,11,5,0,0.00
2013-9-9,73.9,59.6,47.0,63.1,52.4,43.2,90,78,64,29.87,29.68,13,7,0,0.00
2013-9-10,86.5,75.2,62.2,76.6,69.9,59.7,96,84,68,29.70,29.63,14,8,0,0.00
2013-9-11,88.1,78.4,70.6,75.8,71.4,65.9,94,80,56,29.79,29.52,12,7,0,0.00
2013-9-12,73.5,67.5,59.3,68.7,64.1,56.6,95,89,81,29.55,29.34,13,5,0,0.00
2013-9-13,59.2,53.9,48.5,56.8,51.6,46.7,95,92,85,29.65,29.37,11,5,0,0.00
2013-9-14,59.6,51.9,46.3,47.1,44.0,41.2,95,76,51,29.79,29.64,7,4,0,0.00
2013-9-15,64.2,55.5,43.5,53.3,47.0,39.6,88,74,57,29.83,29.71,9,4,0,0.00
2013-9-16,56.8,50.0,44.3,53.3,47.8,41.3,95,92,85,30.00,29.71,10,4,0,0.00
2013-9-17,62.5,51.2,41.1,44.8,42.0,38.6,93,73,45,30.13,29.94,7,2,0,0.00
2013-9-18,71.1,56.2,45.7,50.9,45.5,40.6,83,69,43,29.94,29.73,10,6,0,0.00
2013-9-19,73.7,62.2,52.8,59.5,53.5,46.8,84,74,57,29.75,29.62,11,7,0,0.00
2013-9-20,78.9,66.4,56.3,66.4,60.1,54.3,94,81,63,29.64,29.36,12,8,0,0.00
2013-9-21,68.7,62.2,52.8,64.2,59.1,50.2,97,90,77,29.36,29.22,14,5,0,0.00
2013-9-22,53.5,50.4,46.1,50.1,45.2,41.7,93,83,71,29.64,29.33,8,3,0,0.00
2013-9-23,58.7,50.6,46.7,44.7,42.8,40.8,88,75,55,29.76,29.64,7,3,0,0.00
2013-9-24,65.3,52.7,45.4,49.0,45.2,41.0,92,77,54,29.75,29.61,7,3,0,0.00
2013-9-25,67.0,57.0,48.5,53.9,48.0,40.3,91,73,50,29.61,29.53,7,2,0,0.00
2013-9-26,66.0,58.1,49.7,55.3,50.2,43.8,85,75,65,29.73,29.58,7,3,0,0.00
2013-9-27,66.6,57.0,52.0,56.4,52.3,49.5,94,85,64,29.84,29.73,5,2,0,0.00
2013-9-28,71.2,59.3,51.2,57.6,53.2,49.5,95,82,56,29.88,29.75,8,4,0,0.00
2013-9-29,71.4,60.0,48.6,56.1,52.0,46.4,93,76,55,29.75,29.58,12,6,0,0.00
2013-9-30,74.9,62.7,54.8,62.1,56.2,50.7,92,80,52,29.60,29.50,10,4,0,0.00
2013-10-1,72.2,64.1,57.1,59.9,57.3,53.9,95,80,54,29.59,29.46,11,5,0,0.00
2013-10-2,72.1,64.9,58.1,63.3,59.0,53.7,93,82,57,29.58,29.45,11,5,0,0.00
2013-10-3,71.0,62.0,52.4,62.3,51.6,46.1,89,70,49,29.63,29.51,8,3,0,0.00
2013-10-4,72.6,67.0,63.0,67.4,64.6,60.0,96,92,83,29.52,29.47,11,5,0,0.00
2013-10-5,63.5,60.4,58.2,63.2,59.8,57.6,99,98,97,29.55,29.48,4,1,0,0.00
2013-10-6,79.9,67.5,58.2,69.6,63.8,57.6,99,89,67,29.48,29.18,10,4,0,0.00
2013-10-7,71.9,60.7,48.7,65.4,54.8,43.6,94,81,64,29.33,29.01,20,9,0,0.00
2013-10-8,61.6,52.7,46.5,48.0,45.5,43.8,94,78,53,30.04,28.71,5,2,0,0.00
2013-10-9,64.6,56.0,46.3,50.7,44.1,39.7,84,66,49,30.08,29.97,4,2,0,0.00
2013-10-10,64.1,54.6,46.5,48.0,43.3,37.1,83,66,39,29.97,29.84,6,3,0,0.00
2013-10-11,66.7,57.7,51.1,52.1,46.2,40.1,86,66,43,29.85,29.79,5,2,0,0.00
2013-10-12,72.5,61.7,52.5,50.6,44.1,37.4,87,55,28,29.88,29.80,6,2,0,0.00
2013-10-13,64.6,59.7,55.9,60.9,53.7,42.4,97,82,54,29.95,29.86,9,5,0,0.00
2013-10-14,59.5,55.4,51.1,57.5,52.6,46.3,97,91,77,30.00,29.93,9,2,0,0.00
2013-10-15,63.2,56.3,48.2,57.3,52.8,44.6,96,88,80,29.96,29.65,10,4,0,0.00
2013-10-16,61.8,58.9,56.0,58.0,54.1,50.9,94,84,73,29.65,29.45,16,11,0,0.00
2013-10-17,60.0,54.2,48.6,52.1,50.0,46.7,96,86,71,29.56,29.34,8,3,0,0.00
2013-10-18,56.1,50.6,47.9,49.1,44.4,41.1,93,80,63,29.61,29.41,19,9,0,0.00
2013-10-19,58.2,50.3,43.8,46.4,43.2,40.8,91,77,60,29.60,29.33,16,9,0,0.00
2013-10-20,47.0,43.8,39.6,43.9,41.0,37.5,95,90,83,29.69,29.45,12,6,0,0.00
2013-10-21,63.8,53.3,43.6,43.8,39.7,38.1,85,62,40,29.69,29.45,18,10,0,0.00
2013-10-22,55.9,44.7,40.1,47.7,38.8,33.0,94,80,57,29.54,29.41,19,8,0,0.00
2013-10-23,42.6,39.1,34.8,38.4,35.6,32.4,93,87,79,29.52,29.39,9,4,0,0.00
2013-10-24,44.7,37.2,32.5,36.8,33.2,28.9,95,86,55,29.73,29.51,20,8,0,0.00
2013-10-25,46.6,39.9,37.6,38.1,36.0,34.8,92,86,66,29.89,29.73,15,6,0,0.00
2013-10-26,45.2,41.0,37.8,35.6,31.5,28.4,86,69,55,29.83,29.49,21,12,0,0.00
2013-10-27,44.1,40.1,36.8,37.6,35.4,32.8,92,83,70,29.76,29.52,12,5,0,0.02
2013-10-28,47.8,40.5,35.4,40.3,33.3,26.1,89,76,53,30.07,29.75,9,4,0,0.00
2013-10-29,46.5,39.0,32.7,33.4,29.2,25.4,80,68,55,30.15,29.99,4,1,0,0.03
2013-10-30,57.4,47.3,38.7,42.9,38.7,32.0,85,72,57,29.99,29.77,5,2,0,0.00
2013-10-31,65.5,56.9,45.9,59.8,52.7,38.4,95,86,72,29.78,29.06,20,11,0,0.01
2013-11-1,61.4,55.5,49.4,58.6,48.8,41.7,95,78,62,29.31,28.86,31,16,0,0.00
2013-11-2,49.3,44.6,35.3,45.1,41.8,33.7,95,90,80,29.64,29.25,11,6,0,0.00
2013-11-3,36.6,32.6,28.8,34.1,26.5,22.9,95,79,61,30.21,29.64,9,5,0,0.00
2013-11-4,39.9,34.0,26.8,25.0,21.7,18.1,83,62,43,30.33,30.13,10,4,0,0.03
2013-11-5,53.1,43.9,35.6,35.6,28.9,19.3,66,56,48,30.17,30.00,16,10,0,0.04
2013-11-6,64.6,54.0,45.2,54.3,45.4,35.6,95,73,59,30.01,29.44,17,12,0,0.03
2013-11-7,55.8,42.7,36.2,54.4,37.7,29.6,95,83,70,29.61,29.41,13,6,0,0.01
2013-11-8,38.4,36.0,34.0,32.2,29.9,27.6,89,79,70,29.88,29.58,10,5,0,0.01
2013-11-9,49.7,40.6,34.1,42.1,32.5,29.7,87,73,54,29.87,29.44,17,8,0,0.01
2013-11-10,48.0,42.1,37.3,42.8,34.9,29.0,87,76,66,29.77,29.41,23,12,0,0.01
2013-11-11,43.7,36.9,27.6,35.3,31.4,25.1,94,81,58,29.78,29.55,17,8,0,0.00
2013-11-12,29.7,26.7,24.1,25.3,21.5,17.6,91,81,69,30.00,29.73,12,6,0,0.00
2013-11-13,34.3,28.7,21.3,26.4,21.6,17.2,86,75,52,30.05,29.74,19,9,0,0.00
2013-11-14,50.6,40.3,32.9,24.0,18.7,13.0,60,43,23,29.75,29.64,22,14,0,0.04
2013-11-15,53.4,43.6,36.8,26.9,23.8,20.9,53,46,28,29.74,29.65,14,9,0,0.00
2013-11-16,57.8,48.3,39.8,42.9,36.5,26.4,75,64,47,29.83,29.63,13,7,0,0.00
2013-11-17,59.3,54.3,50.4,54.6,50.3,43.2,93,86,76,29.63,28.96,25,15,0,0.01
2013-11-18,57.6,43.9,34.7,48.8,36.6,27.1,91,75,60,29.50,28.95,28,18,0,0.00
2013-11-19,35.1,32.5,27.1,28.1,25.6,23.5,87,76,66,30.05,29.49,16,6,0,0.01
2013-11-20,39.0,31.2,24.8,27.8,22.0,17.0,87,70,47,30.18,30.04,7,3,0,0.03
2013-11-21,40.0,36.3,31.0,36.0,27.1,17.7,92,70,52,30.06,29.84,17,10,0,0.04
2013-11-22,47.3,40.3,32.4,45.8,38.2,28.1,96,92,83,29.84,29.57,14,7,0,0.02
2013-11-23,34.0,26.6,16.8,28.0,20.9,9.2,93,79,60,29.79,29.59,20,10,0,0.00
2013-11-24,20.1,16.7,13.0,14.5,11.3,8.1,87,79,68,30.05,29.79,18,8,0,0.00
2013-11-25,32.0,24.9,14.8,23.8,15.0,11.2,89,68,44,30.01,29.71,17,9,0,0.00
2013-11-26,33.5,31.7,29.5,31.0,28.2,23.3,97,87,75,29.74,29.37,13,5,0,0.00
2013-11-27,32.1,28.7,21.8,31.3,26.3,18.2,97,91,79,29.50,29.23,14,6,0,0.00
2013-11-28,24.7,21.0,16.8,20.3,17.1,13.7,94,85,69,30.01,29.50,12,4,0,0.00
2013-11-29,26.0,21.7,16.6,20.6,17.0,11.2,94,82,67,30.33,30.00,4,1,0,0.00
2013-11-30,30.9,23.7,14.5,23.5,17.7,10.5,86,78,70,30.30,29.80,21,10,0,0.00
2013-12-1,37.5,32.7,28.3,32.9,28.4,23.5,92,84,75,29.80,29.53,16,9,0,0.02
2013-12-2,38.8,36.1,32.9,34.0,32.4,30.3,91,86,80,29.53,29.41,8,2,0,0.06
2013-12-3,38.3,32.5,29.3,32.7,29.0,26.1,92,87,79,29.57,29.45,4,1,0,0.02
2013-12-4,51.1,41.7,31.2,42.0,37.2,28.3,94,84,69,29.59,29.45,13,3,0,0.02
2013-12-5,58.7,48.8,38.6,54.5,45.0,34.8,90,87,80,29.53,29.30,18,12,0,0.00
2013-12-6,38.3,32.2,28.1,35.1,28.4,24.9,93,86,75,29.81,29.53,9,5,0,0.06
2013-12-7,28.3,24.9,21.2,26.3,19.8,14.2,92,81,74,30.13,29.79,11,5,0,0.00
2013-12-8,25.5,21.9,17.0,22.1,16.1,11.7,92,78,62,30.15,29.75,10,4,0,0.00
2013-12-9,38.5,32.8,25.1,35.6,28.9,22.0,92,86,77,29.75,29.42,21,14,0,0.01
2013-12-10,30.4,23.7,19.3,24.3,18.9,11.5,93,82,63,29.62,29.47,19,10,0,0.00
2013-12-11,23.2,19.9,10.9,20.3,17.7,6.8,93,91,83,29.85,29.62,14,7,0,0.00
2013-12-12,17.5,13.9,6.0,14.0,9.5,3.0,90,83,71,29.90,29.64,16,8,0,0.00
2013-12-13,23.4,18.0,12.6,21.3,15.6,10.5,92,90,86,29.94,29.62,14,6,0,0.00
2013-12-14,26.5,14.4,9.4,25.3,12.4,7.1,95,91,90,29.97,29.29,5,2,0,0.00
2013-12-15,28.5,24.1,18.6,27.3,21.7,12.2,96,91,76,29.41,29.16,19,8,0,0.00
2013-12-16,19.5,15.2,11.0,16.0,6.3,-99.9,92,83,76,29.72,29.41,16,-58,0,0.00
2013-12-17,27.7,20.1,8.3,24.9,17.2,5.7,94,88,84,29.68,29.46,20,7,0,0.00
2013-12-18,27.6,26.1,22.4,26.0,23.3,19.6,94,89,80,29.60,29.45,12,7,0,0.00
2013-12-19,39.9,34.4,23.9,33.7,27.7,18.0,85,76,69,29.56,29.44,24,10,0,0.02
2013-12-20,46.2,41.7,38.8,45.4,38.9,33.3,97,90,79,29.49,29.26,13,8,0,0.09
2013-12-21,52.4,44.9,31.8,51.6,44.0,31.0,98,97,95,29.30,29.22,14,6,0,0.20
2013-12-22,60.5,40.0,31.0,56.5,38.6,30.3,99,95,80,29.42,29.06,23,8,0,0.11
2013-12-23,39.5,34.0,24.0,38.3,30.7,19.3,96,88,79,29.71,29.41,20,9,0,0.02
2013-12-24,25.7,20.2,10.5,22.8,17.1,6.1,94,88,82,29.97,29.65,10,4,0,0.00
2013-12-25,24.0,14.9,5.5,16.3,9.6,2.7,90,80,66,30.02,29.72,12,4,0,0.00
2013-12-26,30.6,26.4,23.9,27.6,22.7,16.5,93,86,73,29.75,29.55,18,10,0,0.00
2013-12-27,32.8,28.5,23.9,28.8,24.9,19.3,91,86,81,29.76,29.58,15,8,0,0.00
2013-12-28,43.6,39.4,31.6,35.1,31.7,27.2,84,74,65,29.58,29.42,22,11,0,0.15
2013-12-29,42.6,39.7,38.6,32.5,31.7,30.6,76,73,65,29.42,29.28,14,9,0,0.01